Latest Weather Observations for Trangie

IDN60801

Issued at 3:52 pm EDT Monday 19 November 2018 (issued every 10 minutes, with the page automatically refreshed every 10 minutes)

About weather observations | Map of weather stations | Latest weather observations for NSW | Other Formats
Station Details ID: 051049 Name: TRANGIE RESEARCH STATION AWS Lat: -31.99 Lon: 147.95 Height: 215.0 m
Data from the previous 72 hours. | See also: Recent months at Trangie
Date/Time
EDT
Temp
°C
App
Temp
°C
Dew
Point
°C
Rel
Hum
%
Delta-T
°C
Wind Press
QNH
hPa
Press
MSL
hPa
Rain since
9am
mm
Dir  Spd
km/h
Gust
km/h
Spd
kts
Gust
kts
19/03:30pm 27.8 24.4 11.4 36 9.5 NNE 20 33 11 18 1014.1 1013.3 0.0
19/03:00pm 26.9 23.4 11.0 37 9.1 NNE 20 28 11 15 1014.7 1013.9 0.0
19/02:30pm 27.3 24.9 11.3 37 9.2 NNE 15 26 8 14 1015.2 1014.4 0.0
19/02:00pm 27.2 23.8 11.3 37 9.1 NE 20 30 11 16 1015.8 1015.0 0.0
19/01:30pm 26.8 22.9 10.9 37 9.1 NNE 22 39 12 21 1016.4 1015.6 0.0
19/01:00pm 26.9 23.7 11.4 38 8.9 NNE 19 30 10 16 1016.9 1016.1 0.0
19/12:30pm 26.5 22.8 11.4 39 8.7 NNE 22 35 12 19 1017.4 1016.6 0.0
19/12:00pm 25.6 21.8 11.0 40 8.3 NNE 22 37 12 20 1017.9 1017.2 0.0
19/11:30am 24.6 21.0 11.9 45 7.3 NNE 22 33 12 18 1018.4 1017.6 0.0
19/11:00am 23.9 20.4 10.9 44 7.3 NNE 20 32 11 17 1018.8 1018.0 0.0
19/10:30am 23.1 19.4 11.5 48 6.6 NNE 22 37 12 20 1019.2 1018.4 0.0
19/10:00am 22.4 19.7 11.8 51 6.0 NE 17 28 9 15 1019.5 1018.7 0.0
19/09:30am 21.5 18.7 11.5 53 5.6 NE 17 26 9 14 1019.9 1019.1 0.0
19/09:00am 20.4 17.1 11.6 57 4.9 ENE 20 30 11 16 1020.0 1019.2 0.0
19/08:30am 20.2 16.8 11.4 57 4.9 ENE 20 32 11 17 1019.7 1018.9 0.0
19/08:00am 18.5 15.3 11.1 62 4.1 ENE 19 30 10 16 1019.6 1018.8 0.0
19/07:30am 17.3 13.9 11.1 67 3.4 ENE 20 35 11 19 1019.2 1018.4 0.0
19/07:00am 16.4 13.9 11.1 71 2.9 ENE 15 26 8 14 1019.0 1018.2 0.0
19/06:30am 15.5 12.2 10.9 74 2.5 E 19 28 10 15 1018.6 1017.8 0.0
19/06:00am 15.4 12.1 10.8 74 2.5 E 19 30 10 16 1018.4 1017.6 0.0
19/05:30am 15.5 12.9 10.7 73 2.6 E 15 28 8 15 1017.9 1017.2 0.0
19/05:00am 15.5 12.1 10.5 72 2.7 E 19 30 10 16 1017.9 1017.2 0.0
19/04:30am 15.8 11.8 10.3 70 2.9 E 22 35 12 19 1017.8 1017.1 0.0
19/04:00am 16.0 12.0 10.3 69 3.0 E 22 35 12 19 1017.8 1017.1 0.0
19/03:30am 16.2 11.6 9.6 65 3.5 E 24 37 13 20 1017.8 1017.1 0.0
19/03:00am 16.8 12.2 8.2 57 4.4 E 22 37 12 20 1018.3 1017.5 0.0
19/02:30am 16.9 12.3 6.7 51 5.1 E 20 33 11 18 1018.5 1017.7 0.0
19/02:00am 18.2 13.2 4.4 40 6.6 ENE 20 32 11 17 1019.1 1018.3 0.0
19/01:30am 18.4 11.9 4.6 40 6.7 ENE 28 43 15 23 1018.5 1017.7 0.0
19/01:00am 18.7 13.3 6.5 45 6.1 ENE 24 46 13 25 1019.1 1018.3 0.0
19/12:30am 18.6 13.8 7.4 48 5.7 E 22 39 12 21 1018.3 1017.5 0.0
19/12:00am 19.2 14.2 7.9 48 5.8 E 24 41 13 22 1018.0 1017.3 0.0
 
Date/Time
EDT
Temp
°C
App
Temp
°C
Dew
Point
°C
Rel
Hum
%
Delta-T
°C
Wind Press
QNH
hPa
Press
MSL
hPa
Rain since
9am
mm
Dir  Spd
km/h
Gust
km/h
Spd
kts
Gust
kts
18/11:30pm 19.7 14.0 8.4 48 5.9 E 28 46 15 25 1017.8 1017.1 0.0
18/11:00pm 20.4 14.8 8.7 47 6.2 E 28 46 15 25 1017.3 1016.5 0.0
18/10:59pm 20.4 14.8 8.7 47 6.2 E 28 46 15 25 1017.2 1016.4 0.0
18/10:30pm 21.3 16.9 8.9 45 6.6 E 22 39 12 21 1017.1 1016.3 0.0
18/10:08pm 21.9 16.4 9.1 44 6.9 E 28 46 15 25 1016.9 1016.1 0.0
18/10:00pm 22.1 17.7 8.9 43 7.1 E 22 43 12 23 1016.8 1016.0 0.0
18/09:30pm 23.1 18.3 8.8 40 7.7 E 24 41 13 22 1016.3 1015.5 0.0
18/09:00pm 24.4 19.4 8.0 35 8.8 E 24 39 13 21 1015.7 1014.9 0.0
18/08:30pm 25.6 21.7 7.2 31 9.8 E 17 30 9 16 1015.3 1014.5 0.0
18/08:00pm 26.2 22.9 6.3 28 10.4 ESE 13 22 7 12 1015.0 1014.2 0.0
18/07:30pm 27.1 23.4 6.5 27 10.9 ESE 15 26 8 14 1014.7 1013.9 0.0
18/07:00pm 28.2 24.1 6.3 25 11.6 ESE 17 30 9 16 1014.4 1013.6 0.0
18/06:30pm 28.4 24.7 6.5 25 11.7 ESE 15 24 8 13 1014.3 1013.5 0.0
18/06:00pm 29.7 25.3 6.4 23 12.5 ESE 19 33 10 18 1014.3 1013.5 0.0
18/05:30pm 29.6 26.1 5.6 22 12.7 SE 13 24 7 13 1014.4 1013.6 0.0
18/05:00pm 30.1 26.9 6.7 23 12.6 E 13 24 7 13 1014.7 1013.9 0.0
18/04:30pm 29.4 26.3 5.5 22 12.6 E 11 24 6 13 1014.8 1014.0 0.0
18/04:00pm 29.3 26.4 6.7 24 12.2 ENE 11 20 6 11 1015.0 1014.2 0.0
18/03:30pm 29.6 25.9 6.3 23 12.5 ENE 15 26 8 14 1015.4 1014.6 0.0
18/03:00pm 28.6 25.1 7.2 26 11.6 ESE 15 22 8 12 1016.0 1015.2 0.0
18/02:30pm 29.9 26.2 7.8 25 12.2 ENE 17 30 9 16 1016.4 1015.6 0.0
18/02:00pm 29.2 26.8 8.8 28 11.4 NNW 11 24 6 13 1017.0 1016.2 0.0
18/01:30pm 29.3 26.0 9.4 29 11.2 NE 17 22 9 12 1017.4 1016.6 0.0
18/01:00pm 26.9 22.9 8.4 31 10.1 NE 19 24 10 13 1017.9 1017.2 0.0
18/12:30pm 27.2 23.8 9.1 32 10.0 ENE 17 28 9 15 1018.4 1017.6 0.0
18/12:00pm 26.6 22.9 9.5 34 9.5 ENE 19 35 10 19 1018.9 1018.1 0.0
18/11:30am 25.7 21.9 9.1 35 9.1 E 19 41 10 22 1019.3 1018.5 0.0
18/11:00am 25.2 21.4 9.9 38 8.5 E 20 33 11 18 1019.5 1018.7 0.0
18/10:30am 24.2 20.3 9.4 39 8.1 ENE 20 35 11 19 1019.7 1018.9 0.0
18/10:00am 23.2 18.6 9.6 42 7.4 ENE 24 39 13 21 1019.8 1019.0 0.0
18/09:30am 22.1 17.9 9.6 45 6.8 E 22 35 12 19 1019.8 1019.0 0.0
18/09:00am 21.4 17.5 9.6 47 6.4 ENE 20 35 11 19 1019.9 1019.1 0.0
18/08:30am 20.1 14.7 9.4 50 5.7 E 28 41 15 22 1019.7 1018.9 0.0
18/08:00am 19.1 14.2 9.9 55 4.9 E 26 44 14 24 1019.6 1018.8 0.0
18/07:30am 18.3 14.1 9.6 57 4.6 E 22 39 12 21 1019.5 1018.7 0.0
18/07:00am 17.4 13.2 9.6 60 4.1 E 22 37 12 20 1019.4 1018.6 0.0
18/06:30am 16.7 13.0 9.6 63 3.7 E 19 33 10 18 1019.2 1018.4 0.0
18/06:00am 16.6 12.9 9.3 62 3.8 E 19 32 10 17 1018.7 1017.9 0.0
18/05:30am 16.7 12.9 8.9 60 4.1 E 19 37 10 20 1018.6 1017.8 0.0
18/05:00am 17.0 12.9 8.7 58 4.3 E 20 30 11 16 1018.4 1017.6 0.0
18/04:30am 17.3 12.5 9.0 58 4.3 E 24 39 13 21 1018.2 1017.4 0.0
18/04:00am 17.5 13.1 8.9 57 4.5 E 22 39 12 21 1018.0 1017.3 0.0
18/03:30am 18.0 13.3 9.1 56 4.7 E 24 43 13 23 1017.8 1017.1 0.0
18/03:00am 18.1 13.8 9.5 57 4.6 E 22 35 12 19 1017.7 1016.9 0.0
18/02:32am 18.5 13.0 9.3 55 4.9 E 28 46 15 25 1017.6 1016.8 0.0
18/02:30am 18.5 13.8 9.3 55 4.9 E 24 37 13 20 1017.6 1016.8 0.0
18/02:06am 18.9 13.5 9.4 54 5.1 E 28 54 15 29 1017.7 1016.9 0.0
18/02:00am 18.9 14.2 9.4 54 5.1 E 24 41 13 22 1017.7 1016.9 0.0
18/01:30am 19.3 15.2 10.0 55 5.0 E 22 41 12 22 1017.7 1016.9 0.0
18/01:00am 19.8 15.3 10.2 54 5.2 E 24 43 13 23 1017.8 1017.1 0.0
18/12:30am 20.4 15.6 10.2 52 5.6 E 26 39 14 21 1017.7 1016.9 0.0
18/12:00am 21.0 16.5 10.2 50 5.9 E 24 39 13 21 1017.4 1016.6 0.0
 
Date/Time
EDT
Temp
°C
App
Temp
°C
Dew
Point
°C
Rel
Hum
%
Delta-T
°C
Wind Press
QNH
hPa
Press
MSL
hPa
Rain since
9am
mm
Dir  Spd
km/h
Gust
km/h
Spd
kts
Gust
kts
17/11:30pm 21.5 15.9 10.0 48 6.3 E 30 48 16 26 1017.0 1016.2 0.0
17/11:24pm 21.7 16.4 9.9 47 6.4 E 28 48 15 26 1017.0 1016.2 0.0
17/11:00pm 22.3 17.7 9.5 44 7.0 E 24 43 13 23 1016.8 1016.0 0.0
17/10:30pm 23.1 18.8 9.5 42 7.4 E 22 37 12 20 1016.6 1015.8 0.0
17/10:00pm 24.0 20.6 9.2 39 8.1 E 17 33 9 18 1016.2 1015.4 0.0
17/09:30pm 24.2 19.4 -2.4 17 11.7 SSW 13 17 7 9 1015.3 1014.5 0.0
17/09:00pm 24.8 20.0 -2.7 16 12.1 SSW 13 17 7 9 1015.0 1014.2 0.0
17/08:30pm 25.7 20.0 -3.8 14 12.9 SSW 17 20 9 11 1014.8 1014.0 0.0
17/08:00pm 26.6 20.5 -4.0 13 13.4 SSW 19 24 10 13 1014.6 1013.8 0.0
17/07:30pm 27.8 22.2 -3.1 13 13.9 SSW 17 24 9 13 1014.3 1013.5 0.0
17/07:00pm 29.0 22.8 -3.2 12 14.6 SSW 20 28 11 15 1014.0 1013.2 0.0
17/06:30pm 29.8 23.3 -2.6 12 14.9 SSW 22 32 12 17 1013.7 1012.8 0.0
17/06:00pm 30.1 23.6 -2.4 12 15.0 SSW 22 32 12 17 1013.6 1012.7 0.0
17/05:30pm 30.6 24.5 -2.0 12 15.3 SSW 20 32 11 17 1013.5 1012.6 0.0
17/05:00pm 31.0 25.9 -1.7 12 15.4 SSW 15 26 8 14 1013.5 1012.6 0.0
17/04:30pm 30.8 26.1 -1.9 12 15.3 S 13 24 7 13 1013.5 1012.6 0.0
17/04:00pm 30.4 25.8 -1.1 13 14.9 S 13 24 7 13 1014.0 1013.2 0.0
17/03:30pm 29.9 25.8 -0.5 14 14.5 SSE 11 20 6 11 1014.1 1013.3 0.0
17/03:00pm 31.0 27.2 -0.6 13 15.2 SSW 9 19 5 10 1014.5 1013.7 0.0
17/02:30pm 30.3 26.2 -0.1 14 14.7 S 11 19 6 10 1014.9 1014.1 0.0
17/02:00pm 29.4 25.2 -0.9 14 14.3 S 11 19 6 10 1015.3 1014.5 0.0
17/01:30pm 29.2 24.9 -2.0 13 14.4 SSW 11 24 6 13 1015.7 1014.9 0.0
17/01:00pm 28.8 24.2 -1.3 14 14.1 SSW 13 24 7 13 1016.0 1015.2 0.0
17/12:30pm 28.4 24.5 1.0 17 13.3 SW 11 20 6 11 1016.3 1015.5 0.0
17/12:00pm 28.1 24.1 3.0 20 12.6 SSW 13 20 7 11 1016.8 1016.0 0.0
17/11:30am 27.5 23.9 5.1 24 11.6 S 13 20 7 11 1017.2 1016.4 0.0
17/11:00am 25.8 22.5 7.9 32 9.6 SSE 15 22 8 12 1017.4 1016.6 0.0
17/10:30am 25.2 23.1 9.9 38 8.5 SSE 11 19 6 10 1017.5 1016.7 0.0
17/10:00am 24.4 22.6 11.0 43 7.6 SSE 11 17 6 9 1017.4 1016.6 0.0
17/09:30am 23.0 21.0 11.4 48 6.6 ESE 13 22 7 12 1017.5 1016.7 0.0
17/09:00am 22.3 21.0 12.5 53 5.6 SE 11 19 6 10 1017.5 1016.7 0.0
17/08:30am 21.0 19.8 12.7 59 4.7 ESE 11 19 6 10 1017.3 1016.5 0.0
17/08:00am 19.1 17.3 12.1 64 3.9 E 13 20 7 11 1017.1 1016.3 0.0
17/07:30am 18.0 16.2 12.2 69 3.2 ESE 13 20 7 11 1016.8 1016.0 0.0
17/07:00am 16.6 15.6 12.2 75 2.4 ESE 9 15 5 8 1016.5 1015.7 0.0
17/06:30am 14.5 13.7 11.7 83 1.5 ESE 7 11 4 6 1016.4 1015.6 0.0
17/06:00am 13.6 12.7 10.8 83 1.5 SE 6 7 3 4 1016.1 1015.3 0.0
17/05:30am 14.4 13.5 11.2 81 1.7 ESE 7 11 4 6 1015.9 1015.1 0.0
17/05:00am 14.7 13.7 11.1 79 1.9 SE 7 13 4 7 1015.5 1014.7 0.0
17/04:30am 15.1 13.9 11.5 79 2.0 ESE 9 15 5 8 1015.4 1014.6 0.0
17/04:00am 14.7 13.7 11.1 79 1.9 ESE 7 11 4 6 1015.4 1014.6 0.0
17/03:30am 15.3 14.4 11.3 77 2.2 SE 7 11 4 6 1015.6 1014.8 0.0
17/03:00am 15.4 14.3 10.8 74 2.5 SE 7 13 4 7 1015.7 1014.9 0.0
17/02:30am 16.4 15.5 11.3 72 2.8 SE 7 11 4 6 1015.9 1015.1 0.0
17/02:00am 16.4 14.9 10.7 69 3.1 SE 9 15 5 8 1016.0 1015.2 0.0
17/01:30am 16.9 15.4 9.1 60 4.1 SE 7 11 4 6 1016.2 1015.4 0.0
17/01:00am 18.0 15.9 5.6 44 6.1 SE 6 9 3 5 1016.4 1015.6 0.0
17/12:30am 20.0 16.6 1.9 30 8.4 SE 9 13 5 7 1016.5 1015.7 0.0
17/12:00am 19.9 15.9 0.4 27 8.8 SSW 11 15 6 8 1016.3 1015.5 0.0
 
Date/Time
EDT
Temp
°C
App
Temp
°C
Dew
Point
°C
Rel
Hum
%
Delta-T
°C
Wind Press
QNH
hPa
Press
MSL
hPa
Rain since
9am
mm
Dir  Spd
km/h
Gust
km/h
Spd
kts
Gust
kts
16/11:30pm 20.3 16.8 1.2 28 8.8 SSW 9 11 5 6 1016.4 1015.6 0.0
16/11:00pm 21.2 17.3 1.0 26 9.3 SSW 11 15 6 8 1016.5 1015.7 0.0
16/10:30pm 20.8 16.9 1.1 27 9.1 SSW 11 13 6 7 1016.5 1015.7 0.0
16/10:00pm 23.0 19.1 1.4 24 10.1 SSW 11 17 6 9 1016.2 1015.4 0.0
16/09:30pm 23.1 19.8 0.2 22 10.5 S 7 11 4 6 1015.8 1015.0 0.0
16/09:00pm 24.3 19.7 -0.8 19 11.4 SSW 13 17 7 9 1015.6 1014.8 0.0
16/08:30pm 24.6 20.0 -1.3 18 11.7 SW 13 17 7 9 1015.3 1014.5 0.0
16/08:00pm 26.1 20.7 -1.7 16 12.6 SSW 17 20 9 11 1015.1 1014.3 0.0
16/07:30pm 28.0 22.3 -1.0 15 13.5 SSW 19 28 10 15 1014.6 1013.8 0.0
16/07:00pm 28.9 23.1 -0.3 15 13.9 SSW 20 26 11 14 1014.1 1013.3 0.0
16/06:30pm 29.6 24.3 -0.7 14 14.4 SSW 17 28 9 15 1014.0 1013.2 0.0
16/06:00pm 30.3 23.7 -0.1 14 14.7 SW 24 32 13 17 1013.9 1013.1 0.0
16/05:30pm 30.4 25.4 3.4 18 13.8 SSW 19 30 10 16 1013.9 1013.1 0.0
16/05:00pm 30.7 24.3 1.1 15 14.6 SW 24 35 13 19 1014.1 1013.3 0.0
16/04:30pm 30.9 25.5 2.2 16 14.5 WSW 20 28 11 15 1014.4 1013.6 0.0
16/04:00pm 30.8 27.4 2.1 16 14.4 WSW 9 24 5 13 1014.4 1013.6 0.0

Other Formats:

Comma delimited format used in spreadsheet applications
http://www.bom.gov.au/fwo/IDN60801/IDN60801.95710.axf

JavaScript Object Notation format (JSON) in row-major order
http://www.bom.gov.au/fwo/IDN60801/IDN60801.95710.json